sensor_id;sensor_type;location;lat;lon;timestamp;P1;durP1;ratioP1;P2;durP2;ratioP2
18887;SDS011;9576;47.792;9.628;2022-11-20T00:02:16;11.68;;;4.25;;
18887;SDS011;9576;47.792;9.628;2022-11-20T00:05:18;6.60;;;3.70;;
18887;SDS011;9576;47.792;9.628;2022-11-20T00:08:21;16.85;;;4.45;;
18887;SDS011;9576;47.792;9.628;2022-11-20T00:11:23;7.50;;;3.50;;
18887;SDS011;9576;47.792;9.628;2022-11-20T00:14:26;10.30;;;4.55;;
18887;SDS011;9576;47.792;9.628;2022-11-20T00:17:29;7.40;;;3.97;;
18887;SDS011;9576;47.792;9.628;2022-11-20T00:20:31;7.82;;;4.45;;
18887;SDS011;9576;47.792;9.628;2022-11-20T00:23:33;6.05;;;3.92;;
18887;SDS011;9576;47.792;9.628;2022-11-20T00:26:35;6.63;;;3.70;;
18887;SDS011;9576;47.792;9.628;2022-11-20T00:29:37;7.97;;;3.83;;
18887;SDS011;9576;47.792;9.628;2022-11-20T00:32:41;5.57;;;3.28;;
18887;SDS011;9576;47.792;9.628;2022-11-20T00:35:43;8.57;;;3.53;;
18887;SDS011;9576;47.792;9.628;2022-11-20T00:38:45;5.30;;;3.10;;
18887;SDS011;9576;47.792;9.628;2022-11-20T00:41:47;5.20;;;3.35;;
18887;SDS011;9576;47.792;9.628;2022-11-20T00:44:49;6.13;;;3.20;;
18887;SDS011;9576;47.792;9.628;2022-11-20T00:47:52;7.28;;;3.55;;
18887;SDS011;9576;47.792;9.628;2022-11-20T00:50:54;13.35;;;3.20;;
18887;SDS011;9576;47.792;9.628;2022-11-20T00:53:56;5.43;;;3.03;;
18887;SDS011;9576;47.792;9.628;2022-11-20T00:56:59;4.07;;;2.97;;
18887;SDS011;9576;47.792;9.628;2022-11-20T01:00:02;5.38;;;3.67;;
18887;SDS011;9576;47.792;9.628;2022-11-20T01:03:06;6.68;;;3.25;;
18887;SDS011;9576;47.792;9.628;2022-11-20T01:06:09;6.57;;;3.67;;
18887;SDS011;9576;47.792;9.628;2022-11-20T01:09:13;5.75;;;3.38;;
18887;SDS011;9576;47.792;9.628;2022-11-20T01:12:15;5.53;;;3.33;;
18887;SDS011;9576;47.792;9.628;2022-11-20T01:15:17;9.65;;;4.13;;
18887;SDS011;9576;47.792;9.628;2022-11-20T01:18:20;8.30;;;3.55;;
18887;SDS011;9576;47.792;9.628;2022-11-20T01:21:23;12.90;;;3.53;;
18887;SDS011;9576;47.792;9.628;2022-11-20T01:24:26;7.13;;;3.97;;
18887;SDS011;9576;47.792;9.628;2022-11-20T01:27:28;5.63;;;3.40;;
18887;SDS011;9576;47.792;9.628;2022-11-20T01:30:30;8.30;;;4.30;;
18887;SDS011;9576;47.792;9.628;2022-11-20T01:33:33;7.43;;;3.63;;
18887;SDS011;9576;47.792;9.628;2022-11-20T01:36:35;5.50;;;3.92;;
18887;SDS011;9576;47.792;9.628;2022-11-20T01:39:38;8.32;;;3.05;;
18887;SDS011;9576;47.792;9.628;2022-11-20T01:42:44;8.52;;;4.03;;
18887;SDS011;9576;47.792;9.628;2022-11-20T01:46:15;11.90;;;4.32;;
18887;SDS011;9576;47.792;9.628;2022-11-20T01:49:21;6.65;;;3.80;;
18887;SDS011;9576;47.792;9.628;2022-11-20T01:52:28;7.63;;;3.83;;
18887;SDS011;9576;47.792;9.628;2022-11-20T01:55:35;7.22;;;3.97;;
18887;SDS011;9576;47.792;9.628;2022-11-20T01:58:42;11.07;;;3.92;;
18887;SDS011;9576;47.792;9.628;2022-11-20T02:01:49;6.07;;;4.10;;
18887;SDS011;9576;47.792;9.628;2022-11-20T02:04:53;6.38;;;3.95;;
18887;SDS011;9576;47.792;9.628;2022-11-20T02:07:58;10.23;;;4.30;;
18887;SDS011;9576;47.792;9.628;2022-11-20T02:11:00;7.85;;;3.38;;
18887;SDS011;9576;47.792;9.628;2022-11-20T02:14:02;10.93;;;4.47;;
18887;SDS011;9576;47.792;9.628;2022-11-20T02:17:04;7.07;;;3.65;;
18887;SDS011;9576;47.792;9.628;2022-11-20T02:20:08;5.32;;;3.83;;
18887;SDS011;9576;47.792;9.628;2022-11-20T02:23:11;6.82;;;4.20;;
18887;SDS011;9576;47.792;9.628;2022-11-20T02:26:19;11.68;;;5.53;;
18887;SDS011;9576;47.792;9.628;2022-11-20T02:32:26;12.68;;;4.13;;
18887;SDS011;9576;47.792;9.628;2022-11-20T02:35:40;8.07;;;4.53;;
18887;SDS011;9576;47.792;9.628;2022-11-20T02:38:44;8.70;;;5.03;;
18887;SDS011;9576;47.792;9.628;2022-11-20T02:41:47;10.85;;;4.43;;
18887;SDS011;9576;47.792;9.628;2022-11-20T02:44:49;6.45;;;4.15;;
18887;SDS011;9576;47.792;9.628;2022-11-20T02:47:51;6.18;;;4.03;;
18887;SDS011;9576;47.792;9.628;2022-11-20T02:50:53;14.68;;;4.28;;
18887;SDS011;9576;47.792;9.628;2022-11-20T02:53:55;10.40;;;4.93;;
18887;SDS011;9576;47.792;9.628;2022-11-20T02:56:58;18.15;;;6.00;;
18887;SDS011;9576;47.792;9.628;2022-11-20T03:00:00;9.73;;;4.53;;
18887;SDS011;9576;47.792;9.628;2022-11-20T03:03:02;15.63;;;4.75;;
18887;SDS011;9576;47.792;9.628;2022-11-20T03:06:04;8.90;;;5.55;;
18887;SDS011;9576;47.792;9.628;2022-11-20T03:09:06;9.45;;;4.47;;
18887;SDS011;9576;47.792;9.628;2022-11-20T03:12:10;5.32;;;3.88;;
18887;SDS011;9576;47.792;9.628;2022-11-20T03:15:12;7.22;;;4.57;;
18887;SDS011;9576;47.792;9.628;2022-11-20T03:18:14;9.13;;;5.20;;
18887;SDS011;9576;47.792;9.628;2022-11-20T03:21:16;7.65;;;4.22;;
18887;SDS011;9576;47.792;9.628;2022-11-20T03:24:18;10.40;;;5.32;;
18887;SDS011;9576;47.792;9.628;2022-11-20T03:27:21;16.02;;;5.13;;
18887;SDS011;9576;47.792;9.628;2022-11-20T03:30:23;12.07;;;5.07;;
18887;SDS011;9576;47.792;9.628;2022-11-20T03:33:27;7.65;;;4.20;;
18887;SDS011;9576;47.792;9.628;2022-11-20T03:36:30;11.32;;;4.47;;
18887;SDS011;9576;47.792;9.628;2022-11-20T03:39:32;9.18;;;4.38;;
18887;SDS011;9576;47.792;9.628;2022-11-20T03:42:35;8.77;;;5.20;;
18887;SDS011;9576;47.792;9.628;2022-11-20T03:45:46;11.93;;;4.50;;
18887;SDS011;9576;47.792;9.628;2022-11-20T03:48:49;13.57;;;4.75;;
18887;SDS011;9576;47.792;9.628;2022-11-20T03:51:51;8.10;;;5.28;;
18887;SDS011;9576;47.792;9.628;2022-11-20T03:54:53;11.50;;;4.68;;
18887;SDS011;9576;47.792;9.628;2022-11-20T03:57:56;11.75;;;4.68;;
18887;SDS011;9576;47.792;9.628;2022-11-20T04:01:03;9.65;;;4.53;;
18887;SDS011;9576;47.792;9.628;2022-11-20T04:04:06;11.20;;;4.32;;
18887;SDS011;9576;47.792;9.628;2022-11-20T04:07:07;7.82;;;4.47;;
18887;SDS011;9576;47.792;9.628;2022-11-20T04:10:09;6.97;;;3.85;;
18887;SDS011;9576;47.792;9.628;2022-11-20T04:13:13;9.55;;;4.55;;
18887;SDS011;9576;47.792;9.628;2022-11-20T04:16:15;6.65;;;4.20;;
18887;SDS011;9576;47.792;9.628;2022-11-20T04:19:18;6.57;;;4.10;;
18887;SDS011;9576;47.792;9.628;2022-11-20T04:22:19;12.43;;;4.35;;
18887;SDS011;9576;47.792;9.628;2022-11-20T04:25:21;5.80;;;3.60;;
18887;SDS011;9576;47.792;9.628;2022-11-20T04:28:25;8.82;;;4.68;;
18887;SDS011;9576;47.792;9.628;2022-11-20T04:31:27;8.77;;;4.40;;
18887;SDS011;9576;47.792;9.628;2022-11-20T04:34:30;9.97;;;4.37;;
18887;SDS011;9576;47.792;9.628;2022-11-20T04:37:32;5.80;;;3.78;;
18887;SDS011;9576;47.792;9.628;2022-11-20T04:40:34;6.57;;;4.35;;
18887;SDS011;9576;47.792;9.628;2022-11-20T04:43:38;6.20;;;4.15;;
18887;SDS011;9576;47.792;9.628;2022-11-20T04:46:40;8.95;;;4.53;;
18887;SDS011;9576;47.792;9.628;2022-11-20T04:49:43;11.20;;;3.67;;
18887;SDS011;9576;47.792;9.628;2022-11-20T04:52:45;9.48;;;4.20;;
18887;SDS011;9576;47.792;9.628;2022-11-20T04:55:47;6.90;;;4.00;;
18887;SDS011;9576;47.792;9.628;2022-11-20T04:58:51;9.32;;;4.35;;
18887;SDS011;9576;47.792;9.628;2022-11-20T05:01:52;6.43;;;4.32;;
18887;SDS011;9576;47.792;9.628;2022-11-20T05:04:54;7.45;;;3.63;;
18887;SDS011;9576;47.792;9.628;2022-11-20T05:07:56;6.07;;;3.78;;
18887;SDS011;9576;47.792;9.628;2022-11-20T05:10:59;8.68;;;3.88;;
18887;SDS011;9576;47.792;9.628;2022-11-20T05:14:03;7.00;;;4.20;;
18887;SDS011;9576;47.792;9.628;2022-11-20T05:17:05;6.07;;;3.50;;
18887;SDS011;9576;47.792;9.628;2022-11-20T05:20:07;6.38;;;3.80;;
18887;SDS011;9576;47.792;9.628;2022-11-20T05:23:10;13.85;;;3.92;;
18887;SDS011;9576;47.792;9.628;2022-11-20T05:26:12;7.28;;;3.70;;
18887;SDS011;9576;47.792;9.628;2022-11-20T05:29:17;5.25;;;3.55;;
18887;SDS011;9576;47.792;9.628;2022-11-20T05:32:19;6.10;;;3.17;;
18887;SDS011;9576;47.792;9.628;2022-11-20T05:35:25;9.82;;;4.45;;
18887;SDS011;9576;47.792;9.628;2022-11-20T05:38:26;12.38;;;4.63;;
18887;SDS011;9576;47.792;9.628;2022-11-20T05:41:28;5.82;;;3.97;;
18887;SDS011;9576;47.792;9.628;2022-11-20T05:44:32;7.28;;;4.00;;
18887;SDS011;9576;47.792;9.628;2022-11-20T05:47:34;20.08;;;4.28;;
18887;SDS011;9576;47.792;9.628;2022-11-20T05:50:36;9.52;;;4.18;;
18887;SDS011;9576;47.792;9.628;2022-11-20T05:53:37;6.18;;;3.47;;
18887;SDS011;9576;47.792;9.628;2022-11-20T05:56:40;8.02;;;3.83;;
18887;SDS011;9576;47.792;9.628;2022-11-20T05:59:43;7.93;;;4.03;;
18887;SDS011;9576;47.792;9.628;2022-11-20T06:02:45;7.57;;;3.67;;
18887;SDS011;9576;47.792;9.628;2022-11-20T06:05:47;6.60;;;3.75;;
18887;SDS011;9576;47.792;9.628;2022-11-20T06:08:49;14.05;;;4.10;;
18887;SDS011;9576;47.792;9.628;2022-11-20T06:11:51;5.40;;;3.13;;
18887;SDS011;9576;47.792;9.628;2022-11-20T06:14:54;8.95;;;4.22;;
18887;SDS011;9576;47.792;9.628;2022-11-20T06:17:56;6.90;;;3.13;;
18887;SDS011;9576;47.792;9.628;2022-11-20T06:20:59;6.47;;;3.35;;
18887;SDS011;9576;47.792;9.628;2022-11-20T06:24:02;6.40;;;3.17;;
18887;SDS011;9576;47.792;9.628;2022-11-20T06:27:04;3.38;;;2.50;;
18887;SDS011;9576;47.792;9.628;2022-11-20T06:30:08;4.43;;;3.30;;
18887;SDS011;9576;47.792;9.628;2022-11-20T06:33:11;4.80;;;3.17;;
18887;SDS011;9576;47.792;9.628;2022-11-20T06:36:13;4.15;;;2.70;;
18887;SDS011;9576;47.792;9.628;2022-11-20T06:39:17;9.67;;;3.03;;
18887;SDS011;9576;47.792;9.628;2022-11-20T06:42:19;8.02;;;3.25;;
18887;SDS011;9576;47.792;9.628;2022-11-20T06:45:22;6.68;;;3.45;;
18887;SDS011;9576;47.792;9.628;2022-11-20T06:48:25;6.45;;;2.85;;
18887;SDS011;9576;47.792;9.628;2022-11-20T06:51:28;7.88;;;3.42;;
18887;SDS011;9576;47.792;9.628;2022-11-20T06:54:30;7.03;;;3.08;;
18887;SDS011;9576;47.792;9.628;2022-11-20T06:57:32;4.10;;;2.88;;
18887;SDS011;9576;47.792;9.628;2022-11-20T07:00:35;9.02;;;4.82;;
18887;SDS011;9576;47.792;9.628;2022-11-20T07:03:38;6.95;;;4.03;;
18887;SDS011;9576;47.792;9.628;2022-11-20T07:06:40;6.10;;;2.55;;
18887;SDS011;9576;47.792;9.628;2022-11-20T07:09:42;4.75;;;2.50;;
18887;SDS011;9576;47.792;9.628;2022-11-20T07:12:48;7.88;;;2.95;;
18887;SDS011;9576;47.792;9.628;2022-11-20T07:15:53;4.70;;;2.55;;
18887;SDS011;9576;47.792;9.628;2022-11-20T07:18:55;4.38;;;2.95;;
18887;SDS011;9576;47.792;9.628;2022-11-20T07:21:57;7.28;;;3.30;;
18887;SDS011;9576;47.792;9.628;2022-11-20T07:24:59;5.38;;;2.80;;
18887;SDS011;9576;47.792;9.628;2022-11-20T07:28:01;8.25;;;2.72;;
18887;SDS011;9576;47.792;9.628;2022-11-20T07:31:05;7.80;;;2.97;;
18887;SDS011;9576;47.792;9.628;2022-11-20T07:34:07;5.43;;;3.38;;
18887;SDS011;9576;47.792;9.628;2022-11-20T07:37:09;4.90;;;2.78;;
18887;SDS011;9576;47.792;9.628;2022-11-20T07:40:11;9.55;;;3.05;;
18887;SDS011;9576;47.792;9.628;2022-11-20T07:43:13;2.95;;;2.28;;
18887;SDS011;9576;47.792;9.628;2022-11-20T07:46:17;4.57;;;2.45;;
18887;SDS011;9576;47.792;9.628;2022-11-20T07:49:18;6.90;;;3.05;;
18887;SDS011;9576;47.792;9.628;2022-11-20T07:52:20;4.47;;;2.63;;
18887;SDS011;9576;47.792;9.628;2022-11-20T07:55:22;4.60;;;2.63;;
18887;SDS011;9576;47.792;9.628;2022-11-20T07:58:24;7.97;;;2.65;;
18887;SDS011;9576;47.792;9.628;2022-11-20T08:01:27;7.82;;;3.08;;
18887;SDS011;9576;47.792;9.628;2022-11-20T08:04:29;4.60;;;2.17;;
18887;SDS011;9576;47.792;9.628;2022-11-20T08:07:34;4.47;;;2.70;;
18887;SDS011;9576;47.792;9.628;2022-11-20T08:10:37;4.70;;;2.97;;
18887;SDS011;9576;47.792;9.628;2022-11-20T08:13:39;4.18;;;2.80;;
18887;SDS011;9576;47.792;9.628;2022-11-20T08:17:00;7.18;;;2.63;;
18887;SDS011;9576;47.792;9.628;2022-11-20T08:20:02;8.43;;;2.55;;
18887;SDS011;9576;47.792;9.628;2022-11-20T08:23:05;6.43;;;3.20;;
18887;SDS011;9576;47.792;9.628;2022-11-20T08:26:07;4.75;;;2.42;;
18887;SDS011;9576;47.792;9.628;2022-11-20T08:29:09;5.18;;;2.53;;
18887;SDS011;9576;47.792;9.628;2022-11-20T08:32:13;3.25;;;2.10;;
18887;SDS011;9576;47.792;9.628;2022-11-20T08:35:15;7.47;;;2.55;;
18887;SDS011;9576;47.792;9.628;2022-11-20T08:38:17;6.05;;;2.65;;
18887;SDS011;9576;47.792;9.628;2022-11-20T08:41:19;3.83;;;2.42;;
18887;SDS011;9576;47.792;9.628;2022-11-20T08:44:27;5.97;;;2.92;;
18887;SDS011;9576;47.792;9.628;2022-11-20T08:47:31;5.53;;;2.60;;
18887;SDS011;9576;47.792;9.628;2022-11-20T08:50:33;6.28;;;2.67;;
18887;SDS011;9576;47.792;9.628;2022-11-20T08:53:34;7.50;;;2.63;;
18887;SDS011;9576;47.792;9.628;2022-11-20T08:56:36;12.48;;;2.47;;
18887;SDS011;9576;47.792;9.628;2022-11-20T08:59:38;4.03;;;2.55;;
18887;SDS011;9576;47.792;9.628;2022-11-20T09:02:41;4.25;;;2.13;;
18887;SDS011;9576;47.792;9.628;2022-11-20T09:05:43;3.60;;;1.92;;
18887;SDS011;9576;47.792;9.628;2022-11-20T09:08:45;3.72;;;2.17;;
18887;SDS011;9576;47.792;9.628;2022-11-20T09:11:47;4.50;;;2.55;;
18887;SDS011;9576;47.792;9.628;2022-11-20T09:14:50;3.65;;;2.22;;
18887;SDS011;9576;47.792;9.628;2022-11-20T09:17:53;5.80;;;2.35;;
18887;SDS011;9576;47.792;9.628;2022-11-20T09:20:56;3.05;;;2.10;;
18887;SDS011;9576;47.792;9.628;2022-11-20T09:23:58;4.15;;;2.42;;
18887;SDS011;9576;47.792;9.628;2022-11-20T09:27:03;4.82;;;2.42;;
18887;SDS011;9576;47.792;9.628;2022-11-20T09:30:06;5.47;;;2.67;;
18887;SDS011;9576;47.792;9.628;2022-11-20T09:33:10;7.57;;;2.33;;
18887;SDS011;9576;47.792;9.628;2022-11-20T09:36:12;3.03;;;2.22;;
18887;SDS011;9576;47.792;9.628;2022-11-20T09:39:14;7.10;;;2.30;;
18887;SDS011;9576;47.792;9.628;2022-11-20T09:42:19;5.00;;;2.13;;
18887;SDS011;9576;47.792;9.628;2022-11-20T09:45:42;10.52;;;2.38;;
18887;SDS011;9576;47.792;9.628;2022-11-20T09:48:59;6.10;;;2.78;;
18887;SDS011;9576;47.792;9.628;2022-11-20T09:52:18;4.90;;;2.38;;
18887;SDS011;9576;47.792;9.628;2022-11-20T09:55:27;2.47;;;2.15;;
18887;SDS011;9576;47.792;9.628;2022-11-20T09:58:32;2.55;;;2.03;;
18887;SDS011;9576;47.792;9.628;2022-11-20T10:01:39;8.40;;;2.67;;
18887;SDS011;9576;47.792;9.628;2022-11-20T10:04:45;3.28;;;1.67;;
18887;SDS011;9576;47.792;9.628;2022-11-20T10:07:53;12.40;;;2.15;;
18887;SDS011;9576;47.792;9.628;2022-11-20T10:11:04;2.88;;;2.03;;
18887;SDS011;9576;47.792;9.628;2022-11-20T10:14:15;9.32;;;1.92;;
18887;SDS011;9576;47.792;9.628;2022-11-20T10:17:33;5.47;;;1.80;;
18887;SDS011;9576;47.792;9.628;2022-11-20T10:20:58;7.85;;;2.40;;
18887;SDS011;9576;47.792;9.628;2022-11-20T10:24:11;3.70;;;2.25;;
18887;SDS011;9576;47.792;9.628;2022-11-20T10:27:41;6.63;;;2.03;;
18887;SDS011;9576;47.792;9.628;2022-11-20T10:31:06;7.78;;;1.83;;
18887;SDS011;9576;47.792;9.628;2022-11-20T10:34:18;5.90;;;2.20;;
18887;SDS011;9576;47.792;9.628;2022-11-20T10:37:27;3.90;;;1.73;;
18887;SDS011;9576;47.792;9.628;2022-11-20T10:40:33;6.60;;;2.47;;
18887;SDS011;9576;47.792;9.628;2022-11-20T10:43:39;3.10;;;1.73;;
18887;SDS011;9576;47.792;9.628;2022-11-20T10:46:43;3.60;;;2.53;;
18887;SDS011;9576;47.792;9.628;2022-11-20T10:49:46;7.57;;;2.53;;
18887;SDS011;9576;47.792;9.628;2022-11-20T10:52:55;19.55;;;2.22;;
18887;SDS011;9576;47.792;9.628;2022-11-20T10:56:04;2.67;;;1.77;;
18887;SDS011;9576;47.792;9.628;2022-11-20T10:59:22;17.23;;;2.95;;
18887;SDS011;9576;47.792;9.628;2022-11-20T11:02:43;4.70;;;2.30;;
18887;SDS011;9576;47.792;9.628;2022-11-20T11:05:48;1.77;;;1.42;;
18887;SDS011;9576;47.792;9.628;2022-11-20T11:08:58;2.92;;;1.70;;
18887;SDS011;9576;47.792;9.628;2022-11-20T11:12:06;3.25;;;1.88;;
18887;SDS011;9576;47.792;9.628;2022-11-20T11:15:11;7.72;;;2.08;;
18887;SDS011;9576;47.792;9.628;2022-11-20T11:18:23;4.40;;;1.20;;
18887;SDS011;9576;47.792;9.628;2022-11-20T11:21:26;1.85;;;1.50;;
18887;SDS011;9576;47.792;9.628;2022-11-20T11:24:29;3.05;;;1.50;;
18887;SDS011;9576;47.792;9.628;2022-11-20T11:27:31;1.00;;;0.90;;
18887;SDS011;9576;47.792;9.628;2022-11-20T11:30:40;5.80;;;1.45;;
18887;SDS011;9576;47.792;9.628;2022-11-20T11:33:43;1.17;;;1.08;;
18887;SDS011;9576;47.792;9.628;2022-11-20T11:36:49;2.13;;;1.33;;
18887;SDS011;9576;47.792;9.628;2022-11-20T11:39:57;2.95;;;1.67;;
18887;SDS011;9576;47.792;9.628;2022-11-20T11:43:01;1.52;;;1.08;;
18887;SDS011;9576;47.792;9.628;2022-11-20T11:46:08;1.80;;;1.30;;
18887;SDS011;9576;47.792;9.628;2022-11-20T11:49:24;7.93;;;1.88;;
18887;SDS011;9576;47.792;9.628;2022-11-20T11:52:26;9.27;;;2.13;;
18887;SDS011;9576;47.792;9.628;2022-11-20T11:55:33;1.45;;;1.20;;
18887;SDS011;9576;47.792;9.628;2022-11-20T11:58:42;3.35;;;1.40;;
18887;SDS011;9576;47.792;9.628;2022-11-20T12:01:47;1.63;;;0.93;;
18887;SDS011;9576;47.792;9.628;2022-11-20T12:04:54;7.80;;;2.20;;
18887;SDS011;9576;47.792;9.628;2022-11-20T12:08:02;2.85;;;1.60;;
18887;SDS011;9576;47.792;9.628;2022-11-20T12:11:11;9.77;;;2.28;;
18887;SDS011;9576;47.792;9.628;2022-11-20T12:14:16;3.08;;;1.58;;
18887;SDS011;9576;47.792;9.628;2022-11-20T12:17:23;6.50;;;1.95;;
18887;SDS011;9576;47.792;9.628;2022-11-20T12:20:26;3.17;;;1.95;;
18887;SDS011;9576;47.792;9.628;2022-11-20T12:23:34;2.08;;;1.23;;
18887;SDS011;9576;47.792;9.628;2022-11-20T12:26:48;2.05;;;1.60;;
18887;SDS011;9576;47.792;9.628;2022-11-20T12:29:59;3.20;;;1.30;;
18887;SDS011;9576;47.792;9.628;2022-11-20T12:33:12;1.42;;;1.15;;
18887;SDS011;9576;47.792;9.628;2022-11-20T12:36:28;2.75;;;1.73;;
18887;SDS011;9576;47.792;9.628;2022-11-20T12:39:41;1.55;;;1.33;;
18887;SDS011;9576;47.792;9.628;2022-11-20T12:42:50;3.47;;;1.50;;
18887;SDS011;9576;47.792;9.628;2022-11-20T12:46:18;1.83;;;1.30;;
18887;SDS011;9576;47.792;9.628;2022-11-20T12:49:30;3.88;;;1.98;;
18887;SDS011;9576;47.792;9.628;2022-11-20T12:52:41;2.35;;;1.35;;
18887;SDS011;9576;47.792;9.628;2022-11-20T12:55:49;2.15;;;1.58;;
18887;SDS011;9576;47.792;9.628;2022-11-20T12:59:06;3.08;;;1.50;;
18887;SDS011;9576;47.792;9.628;2022-11-20T13:02:24;2.47;;;1.30;;
18887;SDS011;9576;47.792;9.628;2022-11-20T13:05:32;3.75;;;1.25;;
18887;SDS011;9576;47.792;9.628;2022-11-20T13:08:40;2.63;;;1.30;;
18887;SDS011;9576;47.792;9.628;2022-11-20T13:11:44;1.35;;;0.88;;
18887;SDS011;9576;47.792;9.628;2022-11-20T13:14:53;1.67;;;0.93;;
18887;SDS011;9576;47.792;9.628;2022-11-20T13:18:04;6.47;;;1.70;;
18887;SDS011;9576;47.792;9.628;2022-11-20T13:21:14;3.03;;;1.67;;
18887;SDS011;9576;47.792;9.628;2022-11-20T13:24:21;5.70;;;2.35;;
18887;SDS011;9576;47.792;9.628;2022-11-20T13:27:26;1.88;;;1.10;;
18887;SDS011;9576;47.792;9.628;2022-11-20T13:30:32;3.45;;;1.40;;
18887;SDS011;9576;47.792;9.628;2022-11-20T13:33:36;2.70;;;1.40;;
18887;SDS011;9576;47.792;9.628;2022-11-20T13:36:48;3.67;;;1.33;;
18887;SDS011;9576;47.792;9.628;2022-11-20T13:39:51;4.07;;;1.20;;
18887;SDS011;9576;47.792;9.628;2022-11-20T13:43:01;4.43;;;1.67;;
18887;SDS011;9576;47.792;9.628;2022-11-20T13:46:18;1.90;;;1.17;;
18887;SDS011;9576;47.792;9.628;2022-11-20T13:49:25;6.80;;;2.45;;
18887;SDS011;9576;47.792;9.628;2022-11-20T13:52:35;1.60;;;1.15;;
18887;SDS011;9576;47.792;9.628;2022-11-20T13:55:47;7.38;;;1.65;;
18887;SDS011;9576;47.792;9.628;2022-11-20T13:58:59;2.33;;;1.52;;
18887;SDS011;9576;47.792;9.628;2022-11-20T14:02:11;2.85;;;1.50;;
18887;SDS011;9576;47.792;9.628;2022-11-20T14:05:17;1.55;;;1.05;;
18887;SDS011;9576;47.792;9.628;2022-11-20T14:08:26;2.90;;;1.20;;
18887;SDS011;9576;47.792;9.628;2022-11-20T14:11:33;3.15;;;1.30;;
18887;SDS011;9576;47.792;9.628;2022-11-20T14:14:35;4.90;;;1.80;;
18887;SDS011;9576;47.792;9.628;2022-11-20T14:17:38;5.05;;;1.75;;
18887;SDS011;9576;47.792;9.628;2022-11-20T14:20:40;9.45;;;1.52;;
18887;SDS011;9576;47.792;9.628;2022-11-20T14:23:43;1.98;;;1.50;;
18887;SDS011;9576;47.792;9.628;2022-11-20T14:26:46;4.90;;;2.30;;
18887;SDS011;9576;47.792;9.628;2022-11-20T14:29:49;5.57;;;1.75;;
18887;SDS011;9576;47.792;9.628;2022-11-20T14:32:54;2.30;;;1.42;;
18887;SDS011;9576;47.792;9.628;2022-11-20T14:35:58;1.70;;;1.25;;
18887;SDS011;9576;47.792;9.628;2022-11-20T14:39:01;15.63;;;2.20;;
18887;SDS011;9576;47.792;9.628;2022-11-20T14:42:10;7.75;;;2.00;;
18887;SDS011;9576;47.792;9.628;2022-11-20T14:45:16;8.95;;;1.85;;
18887;SDS011;9576;47.792;9.628;2022-11-20T14:48:24;3.15;;;1.50;;
18887;SDS011;9576;47.792;9.628;2022-11-20T14:51:32;4.57;;;1.35;;
18887;SDS011;9576;47.792;9.628;2022-11-20T14:54:43;2.40;;;1.60;;
18887;SDS011;9576;47.792;9.628;2022-11-20T14:57:53;2.70;;;1.70;;
18887;SDS011;9576;47.792;9.628;2022-11-20T15:00:56;2.45;;;1.48;;
18887;SDS011;9576;47.792;9.628;2022-11-20T15:04:04;2.63;;;1.42;;
18887;SDS011;9576;47.792;9.628;2022-11-20T15:07:07;4.07;;;1.55;;
18887;SDS011;9576;47.792;9.628;2022-11-20T15:10:10;4.60;;;1.42;;
18887;SDS011;9576;47.792;9.628;2022-11-20T15:13:14;4.07;;;2.28;;
18887;SDS011;9576;47.792;9.628;2022-11-20T15:16:26;1.88;;;1.45;;
18887;SDS011;9576;47.792;9.628;2022-11-20T15:19:30;2.92;;;2.00;;
18887;SDS011;9576;47.792;9.628;2022-11-20T15:22:31;5.47;;;1.80;;
18887;SDS011;9576;47.792;9.628;2022-11-20T15:25:33;5.47;;;1.50;;
18887;SDS011;9576;47.792;9.628;2022-11-20T15:28:35;1.90;;;1.50;;
18887;SDS011;9576;47.792;9.628;2022-11-20T15:31:40;1.58;;;1.42;;
18887;SDS011;9576;47.792;9.628;2022-11-20T15:34:46;10.00;;;2.67;;
18887;SDS011;9576;47.792;9.628;2022-11-20T15:37:48;5.65;;;2.50;;
18887;SDS011;9576;47.792;9.628;2022-11-20T15:40:49;3.78;;;2.13;;
18887;SDS011;9576;47.792;9.628;2022-11-20T15:43:51;6.85;;;1.67;;
18887;SDS011;9576;47.792;9.628;2022-11-20T15:46:53;5.45;;;1.70;;
18887;SDS011;9576;47.792;9.628;2022-11-20T15:49:57;4.00;;;2.00;;
18887;SDS011;9576;47.792;9.628;2022-11-20T15:52:58;3.45;;;1.60;;
18887;SDS011;9576;47.792;9.628;2022-11-20T15:56:00;3.53;;;1.85;;
18887;SDS011;9576;47.792;9.628;2022-11-20T15:59:02;10.52;;;2.28;;
18887;SDS011;9576;47.792;9.628;2022-11-20T16:02:07;8.35;;;2.08;;
18887;SDS011;9576;47.792;9.628;2022-11-20T16:05:12;4.90;;;1.90;;
18887;SDS011;9576;47.792;9.628;2022-11-20T16:08:16;4.95;;;1.55;;
18887;SDS011;9576;47.792;9.628;2022-11-20T16:11:18;6.00;;;2.38;;
18887;SDS011;9576;47.792;9.628;2022-11-20T16:14:20;3.55;;;1.92;;
18887;SDS011;9576;47.792;9.628;2022-11-20T16:17:39;7.97;;;1.90;;
18887;SDS011;9576;47.792;9.628;2022-11-20T16:20:46;2.90;;;1.50;;
18887;SDS011;9576;47.792;9.628;2022-11-20T16:23:49;8.98;;;2.20;;
18887;SDS011;9576;47.792;9.628;2022-11-20T16:26:52;3.33;;;2.08;;
18887;SDS011;9576;47.792;9.628;2022-11-20T16:29:54;3.10;;;1.70;;
18887;SDS011;9576;47.792;9.628;2022-11-20T16:32:56;7.13;;;2.03;;
18887;SDS011;9576;47.792;9.628;2022-11-20T16:35:59;8.52;;;1.95;;
18887;SDS011;9576;47.792;9.628;2022-11-20T16:39:08;6.10;;;2.92;;
18887;SDS011;9576;47.792;9.628;2022-11-20T16:42:10;3.58;;;2.40;;
18887;SDS011;9576;47.792;9.628;2022-11-20T16:45:12;14.55;;;1.85;;
18887;SDS011;9576;47.792;9.628;2022-11-20T16:48:14;11.98;;;2.13;;
18887;SDS011;9576;47.792;9.628;2022-11-20T16:51:18;5.60;;;1.95;;
18887;SDS011;9576;47.792;9.628;2022-11-20T16:54:20;7.55;;;3.38;;
18887;SDS011;9576;47.792;9.628;2022-11-20T16:57:23;6.13;;;2.85;;
18887;SDS011;9576;47.792;9.628;2022-11-20T17:00:25;4.47;;;2.40;;
18887;SDS011;9576;47.792;9.628;2022-11-20T17:03:27;7.32;;;1.83;;
18887;SDS011;9576;47.792;9.628;2022-11-20T17:06:30;3.55;;;1.90;;
18887;SDS011;9576;47.792;9.628;2022-11-20T17:09:34;4.55;;;2.55;;
18887;SDS011;9576;47.792;9.628;2022-11-20T17:12:35;7.93;;;2.85;;
18887;SDS011;9576;47.792;9.628;2022-11-20T17:15:37;13.75;;;2.58;;
18887;SDS011;9576;47.792;9.628;2022-11-20T17:18:39;7.70;;;3.05;;
18887;SDS011;9576;47.792;9.628;2022-11-20T17:21:43;4.60;;;2.38;;
18887;SDS011;9576;47.792;9.628;2022-11-20T17:24:45;8.35;;;2.78;;
18887;SDS011;9576;47.792;9.628;2022-11-20T17:27:47;9.55;;;3.40;;
18887;SDS011;9576;47.792;9.628;2022-11-20T17:30:49;4.47;;;2.40;;
18887;SDS011;9576;47.792;9.628;2022-11-20T17:33:51;8.88;;;2.35;;
18887;SDS011;9576;47.792;9.628;2022-11-20T17:36:54;16.25;;;3.20;;
18887;SDS011;9576;47.792;9.628;2022-11-20T17:39:56;4.85;;;2.67;;
18887;SDS011;9576;47.792;9.628;2022-11-20T17:42:58;7.65;;;3.25;;
18887;SDS011;9576;47.792;9.628;2022-11-20T17:46:00;7.93;;;3.38;;
18887;SDS011;9576;47.792;9.628;2022-11-20T17:49:04;14.23;;;4.30;;
18887;SDS011;9576;47.792;9.628;2022-11-20T17:52:07;7.60;;;3.83;;
18887;SDS011;9576;47.792;9.628;2022-11-20T17:55:09;9.82;;;3.10;;
18887;SDS011;9576;47.792;9.628;2022-11-20T17:58:11;9.50;;;3.30;;
18887;SDS011;9576;47.792;9.628;2022-11-20T18:01:12;8.73;;;2.85;;
18887;SDS011;9576;47.792;9.628;2022-11-20T18:04:16;4.78;;;2.85;;
18887;SDS011;9576;47.792;9.628;2022-11-20T18:07:20;13.38;;;5.28;;
18887;SDS011;9576;47.792;9.628;2022-11-20T18:10:21;16.20;;;8.50;;
18887;SDS011;9576;47.792;9.628;2022-11-20T18:13:23;17.02;;;8.68;;
18887;SDS011;9576;47.792;9.628;2022-11-20T18:16:46;17.70;;;6.88;;
18887;SDS011;9576;47.792;9.628;2022-11-20T18:19:49;16.70;;;5.40;;
18887;SDS011;9576;47.792;9.628;2022-11-20T18:22:52;11.10;;;5.72;;
18887;SDS011;9576;47.792;9.628;2022-11-20T18:25:58;14.02;;;5.93;;
18887;SDS011;9576;47.792;9.628;2022-11-20T18:29:00;11.73;;;5.25;;
18887;SDS011;9576;47.792;9.628;2022-11-20T18:32:02;9.00;;;4.25;;
18887;SDS011;9576;47.792;9.628;2022-11-20T18:35:04;14.77;;;3.42;;
18887;SDS011;9576;47.792;9.628;2022-11-20T18:38:08;8.55;;;4.40;;
18887;SDS011;9576;47.792;9.628;2022-11-20T18:41:10;15.18;;;6.43;;
18887;SDS011;9576;47.792;9.628;2022-11-20T18:44:33;26.85;;;11.05;;
18887;SDS011;9576;47.792;9.628;2022-11-20T18:47:50;21.88;;;8.65;;
18887;SDS011;9576;47.792;9.628;2022-11-20T18:50:52;13.63;;;7.15;;
18887;SDS011;9576;47.792;9.628;2022-11-20T18:53:55;30.40;;;10.60;;